sensor_id;sensor_type;location;lat;lon;timestamp;pressure;altitude;pressure_sealevel;temperature;humidity
13934;BME280;7039;52.168;9.866;2022-11-15T00:02:14;100205.72;;;8.78;94.76
13934;BME280;7039;52.168;9.866;2022-11-15T00:04:42;100202.91;;;8.83;94.65
13934;BME280;7039;52.168;9.866;2022-11-15T00:07:09;100204.50;;;8.85;94.89
13934;BME280;7039;52.168;9.866;2022-11-15T00:09:35;100206.13;;;8.88;94.63
13934;BME280;7039;52.168;9.866;2022-11-15T00:12:02;100209.50;;;8.90;94.36
13934;BME280;7039;52.168;9.866;2022-11-15T00:14:28;100211.91;;;9.12;95.39
13934;BME280;7039;52.168;9.866;2022-11-15T00:16:54;100215.09;;;9.36;94.71
13934;BME280;7039;52.168;9.866;2022-11-15T00:19:21;100208.50;;;9.46;93.75
13934;BME280;7039;52.168;9.866;2022-11-15T00:21:49;100204.84;;;9.50;93.43
13934;BME280;7039;52.168;9.866;2022-11-15T00:24:15;100200.84;;;9.60;93.69
13934;BME280;7039;52.168;9.866;2022-11-15T00:26:41;100203.91;;;9.69;93.41
13934;BME280;7039;52.168;9.866;2022-11-15T00:29:08;100199.41;;;9.72;93.17
13934;BME280;7039;52.168;9.866;2022-11-15T00:31:34;100200.84;;;9.78;93.08
13934;BME280;7039;52.168;9.866;2022-11-15T00:34:01;100197.47;;;9.76;93.04
13934;BME280;7039;52.168;9.866;2022-11-15T00:36:27;100200.00;;;9.77;93.71
13934;BME280;7039;52.168;9.866;2022-11-15T00:38:55;100199.81;;;9.98;93.11
13934;BME280;7039;52.168;9.866;2022-11-15T00:41:21;100202.47;;;9.96;93.07
13934;BME280;7039;52.168;9.866;2022-11-15T00:43:48;100198.28;;;9.94;92.96
13934;BME280;7039;52.168;9.866;2022-11-15T00:46:14;100196.97;;;10.02;93.39
13934;BME280;7039;52.168;9.866;2022-11-15T00:48:41;100201.16;;;10.05;93.04
13934;BME280;7039;52.168;9.866;2022-11-15T00:51:07;100199.41;;;10.06;92.56
13934;BME280;7039;52.168;9.866;2022-11-15T00:53:34;100198.56;;;10.05;93.20
13934;BME280;7039;52.168;9.866;2022-11-15T00:56:02;100202.63;;;10.11;92.70
13934;BME280;7039;52.168;9.866;2022-11-15T00:58:28;100188.31;;;10.02;92.34
13934;BME280;7039;52.168;9.866;2022-11-15T01:00:55;100190.28;;;9.97;92.49
13934;BME280;7039;52.168;9.866;2022-11-15T01:03:21;100185.19;;;9.95;92.91
13934;BME280;7039;52.168;9.866;2022-11-15T01:05:48;100190.09;;;10.01;93.07
13934;BME280;7039;52.168;9.866;2022-11-15T01:08:15;100181.44;;;10.17;92.92
13934;BME280;7039;52.168;9.866;2022-11-15T01:10:42;100184.81;;;10.19;92.57
13934;BME280;7039;52.168;9.866;2022-11-15T01:13:10;100177.34;;;10.29;92.83
13934;BME280;7039;52.168;9.866;2022-11-15T01:15:39;100178.25;;;10.28;92.66
13934;BME280;7039;52.168;9.866;2022-11-15T01:18:05;100165.56;;;10.21;92.87
13934;BME280;7039;52.168;9.866;2022-11-15T01:20:31;100155.38;;;10.17;92.86
13934;BME280;7039;52.168;9.866;2022-11-15T01:22:58;100156.81;;;10.22;93.16
13934;BME280;7039;52.168;9.866;2022-11-15T01:25:24;100149.09;;;10.21;93.36
13934;BME280;7039;52.168;9.866;2022-11-15T01:27:51;100145.56;;;10.22;93.39
13934;BME280;7039;52.168;9.866;2022-11-15T01:30:19;100137.41;;;10.28;93.66
13934;BME280;7039;52.168;9.866;2022-11-15T01:32:45;100144.75;;;10.37;93.14
13934;BME280;7039;52.168;9.866;2022-11-15T01:35:12;100135.25;;;10.36;93.27
13934;BME280;7039;52.168;9.866;2022-11-15T01:37:38;100130.81;;;10.38;93.33
13934;BME280;7039;52.168;9.866;2022-11-15T01:40:05;100131.63;;;10.39;92.94
13934;BME280;7039;52.168;9.866;2022-11-15T01:42:32;100125.72;;;10.35;93.39
13934;BME280;7039;52.168;9.866;2022-11-15T01:44:58;100118.84;;;10.34;93.23
13934;BME280;7039;52.168;9.866;2022-11-15T01:47:28;100115.06;;;10.40;93.61
13934;BME280;7039;52.168;9.866;2022-11-15T01:49:58;100126.25;;;10.42;93.41
13934;BME280;7039;52.168;9.866;2022-11-15T01:52:28;100123.75;;;10.40;93.58
13934;BME280;7039;52.168;9.866;2022-11-15T01:55:00;100116.69;;;10.42;93.39
13934;BME280;7039;52.168;9.866;2022-11-15T01:57:28;100124.31;;;10.45;93.30
13934;BME280;7039;52.168;9.866;2022-11-15T01:59:55;100118.28;;;10.45;93.25
13934;BME280;7039;52.168;9.866;2022-11-15T02:02:23;100112.13;;;10.46;93.24
13934;BME280;7039;52.168;9.866;2022-11-15T02:04:51;100115.72;;;10.59;93.16
13934;BME280;7039;52.168;9.866;2022-11-15T02:07:19;100116.16;;;10.68;93.07
13934;BME280;7039;52.168;9.866;2022-11-15T02:09:47;100109.25;;;10.66;93.12
13934;BME280;7039;52.168;9.866;2022-11-15T02:12:17;100106.09;;;10.76;93.15
13934;BME280;7039;52.168;9.866;2022-11-15T02:14:48;100093.81;;;10.78;93.14
13934;BME280;7039;52.168;9.866;2022-11-15T02:17:34;100096.84;;;10.86;92.43
13934;BME280;7039;52.168;9.866;2022-11-15T02:26:39;100082.16;;;10.99;91.86
13934;BME280;7039;52.168;9.866;2022-11-15T02:29:14;100088.88;;;11.03;91.34
13934;BME280;7039;52.168;9.866;2022-11-15T02:31:51;100092.06;;;11.08;91.45
13934;BME280;7039;52.168;9.866;2022-11-15T02:34:26;100091.53;;;11.18;91.15
13934;BME280;7039;52.168;9.866;2022-11-15T02:37:02;100081.91;;;11.18;91.04
13934;BME280;7039;52.168;9.866;2022-11-15T02:39:35;100081.84;;;11.20;91.43
13934;BME280;7039;52.168;9.866;2022-11-15T02:42:09;100068.53;;;11.24;91.41
13934;BME280;7039;52.168;9.866;2022-11-15T02:45:03;100077.47;;;11.35;91.10
13934;BME280;7039;52.168;9.866;2022-11-15T02:47:32;100073.81;;;11.37;90.85
13934;BME280;7039;52.168;9.866;2022-11-15T02:50:02;100072.91;;;11.38;90.67
13934;BME280;7039;52.168;9.866;2022-11-15T02:52:31;100067.69;;;11.38;90.31
13934;BME280;7039;52.168;9.866;2022-11-15T02:57:35;100067.97;;;11.48;89.88
13934;BME280;7039;52.168;9.866;2022-11-15T03:00:07;100051.56;;;11.46;89.53
13934;BME280;7039;52.168;9.866;2022-11-15T03:05:37;100055.06;;;11.31;90.17
13934;BME280;7039;52.168;9.866;2022-11-15T03:08:10;100066.09;;;11.36;90.21
13934;BME280;7039;52.168;9.866;2022-11-15T03:10:45;100065.44;;;11.32;90.25
13934;BME280;7039;52.168;9.866;2022-11-15T03:13:21;100072.53;;;11.30;89.94
13934;BME280;7039;52.168;9.866;2022-11-15T03:15:54;100079.53;;;11.29;90.01
13934;BME280;7039;52.168;9.866;2022-11-15T03:18:28;100067.28;;;11.30;89.89
13934;BME280;7039;52.168;9.866;2022-11-15T03:20:58;100072.16;;;11.22;89.90
13934;BME280;7039;52.168;9.866;2022-11-15T03:23:25;100071.66;;;11.15;90.14
13934;BME280;7039;52.168;9.866;2022-11-15T03:25:53;100059.88;;;11.08;90.27
13934;BME280;7039;52.168;9.866;2022-11-15T03:28:23;100070.31;;;11.08;90.37
13934;BME280;7039;52.168;9.866;2022-11-15T03:30:53;100066.66;;;10.96;90.53
13934;BME280;7039;52.168;9.866;2022-11-15T03:33:21;100066.66;;;10.96;90.48
13934;BME280;7039;52.168;9.866;2022-11-15T03:35:49;100072.56;;;11.00;90.47
13934;BME280;7039;52.168;9.866;2022-11-15T03:38:19;100069.94;;;11.00;90.29
13934;BME280;7039;52.168;9.866;2022-11-15T03:40:51;100074.69;;;10.93;90.28
13934;BME280;7039;52.168;9.866;2022-11-15T03:43:24;100072.41;;;10.87;90.49
13934;BME280;7039;52.168;9.866;2022-11-15T03:45:58;100079.41;;;10.86;90.52
13934;BME280;7039;52.168;9.866;2022-11-15T03:48:30;100074.13;;;10.88;90.47
13934;BME280;7039;52.168;9.866;2022-11-15T03:51:01;100081.34;;;10.83;90.45
13934;BME280;7039;52.168;9.866;2022-11-15T03:53:29;100082.38;;;10.80;90.40
13934;BME280;7039;52.168;9.866;2022-11-15T03:55:57;100069.69;;;10.74;90.65
13934;BME280;7039;52.168;9.866;2022-11-15T03:58:23;100069.25;;;10.82;90.31
13934;BME280;7039;52.168;9.866;2022-11-15T04:00:50;100070.28;;;10.79;90.10
13934;BME280;7039;52.168;9.866;2022-11-15T04:03:16;100062.72;;;10.75;90.50
13934;BME280;7039;52.168;9.866;2022-11-15T04:05:43;100065.22;;;10.76;90.23
13934;BME280;7039;52.168;9.866;2022-11-15T04:08:11;100066.06;;;10.77;90.41
13934;BME280;7039;52.168;9.866;2022-11-15T04:10:37;100058.41;;;10.74;90.48
13934;BME280;7039;52.168;9.866;2022-11-15T04:13:03;100057.66;;;10.72;90.41
13934;BME280;7039;52.168;9.866;2022-11-15T04:15:30;100062.59;;;10.76;90.14
13934;BME280;7039;52.168;9.866;2022-11-15T04:17:57;100064.22;;;10.79;90.13
13934;BME280;7039;52.168;9.866;2022-11-15T04:20:25;100061.50;;;10.80;90.11
13934;BME280;7039;52.168;9.866;2022-11-15T04:23:12;100064.88;;;10.82;90.12
13934;BME280;7039;52.168;9.866;2022-11-15T04:25:59;100065.81;;;10.81;90.24
13934;BME280;7039;52.168;9.866;2022-11-15T04:28:26;100072.03;;;10.79;90.03
13934;BME280;7039;52.168;9.866;2022-11-15T04:30:53;100071.78;;;10.83;89.83
13934;BME280;7039;52.168;9.866;2022-11-15T04:33:19;100071.50;;;10.88;89.58
13934;BME280;7039;52.168;9.866;2022-11-15T04:35:46;100071.59;;;10.86;89.40
13934;BME280;7039;52.168;9.866;2022-11-15T04:38:34;100083.63;;;10.89;89.59
13934;BME280;7039;52.168;9.866;2022-11-15T04:41:00;100070.06;;;10.82;89.67
13934;BME280;7039;52.168;9.866;2022-11-15T04:43:27;100068.56;;;10.78;89.64
13934;BME280;7039;52.168;9.866;2022-11-15T04:45:54;100069.50;;;10.77;89.66
13934;BME280;7039;52.168;9.866;2022-11-15T04:48:21;100058.31;;;10.75;89.31
13934;BME280;7039;52.168;9.866;2022-11-15T04:50:48;100068.78;;;10.59;90.38
13934;BME280;7039;52.168;9.866;2022-11-15T04:53:14;100076.78;;;10.56;90.47
13934;BME280;7039;52.168;9.866;2022-11-15T04:55:45;100066.28;;;10.42;91.58
13934;BME280;7039;52.168;9.866;2022-11-15T04:58:12;100059.44;;;10.23;91.99
13934;BME280;7039;52.168;9.866;2022-11-15T05:00:38;100054.59;;;10.17;92.37
13934;BME280;7039;52.168;9.866;2022-11-15T05:03:05;100057.78;;;10.22;92.48
13934;BME280;7039;52.168;9.866;2022-11-15T05:05:49;100064.50;;;10.27;92.00
13934;BME280;7039;52.168;9.866;2022-11-15T05:08:15;100062.84;;;10.41;92.34
13934;BME280;7039;52.168;9.866;2022-11-15T05:10:42;100062.59;;;10.30;92.03
13934;BME280;7039;52.168;9.866;2022-11-15T05:13:09;100065.13;;;10.32;92.50
13934;BME280;7039;52.168;9.866;2022-11-15T05:15:36;100063.16;;;10.19;92.39
13934;BME280;7039;52.168;9.866;2022-11-15T05:18:02;100064.16;;;10.17;92.75
13934;BME280;7039;52.168;9.866;2022-11-15T05:20:29;100065.84;;;10.18;93.11
13934;BME280;7039;52.168;9.866;2022-11-15T05:22:55;100068.47;;;10.18;93.50
13934;BME280;7039;52.168;9.866;2022-11-15T05:25:22;100063.00;;;10.22;93.08
13934;BME280;7039;52.168;9.866;2022-11-15T05:27:49;100058.22;;;10.31;93.02
13934;BME280;7039;52.168;9.866;2022-11-15T05:30:17;100058.13;;;10.32;92.77
13934;BME280;7039;52.168;9.866;2022-11-15T05:32:44;100063.84;;;10.39;92.75
13934;BME280;7039;52.168;9.866;2022-11-15T05:35:14;100058.31;;;10.45;92.16
13934;BME280;7039;52.168;9.866;2022-11-15T05:37:43;100062.31;;;10.51;92.36
13934;BME280;7039;52.168;9.866;2022-11-15T05:40:10;100052.22;;;10.44;92.19
13934;BME280;7039;52.168;9.866;2022-11-15T05:42:36;100058.31;;;10.45;92.29
13934;BME280;7039;52.168;9.866;2022-11-15T05:45:05;100060.91;;;10.45;92.31
13934;BME280;7039;52.168;9.866;2022-11-15T05:47:35;100063.53;;;10.45;92.57
13934;BME280;7039;52.168;9.866;2022-11-15T05:50:02;100054.09;;;10.42;92.69
13934;BME280;7039;52.168;9.866;2022-11-15T05:52:31;100054.09;;;10.42;92.58
13934;BME280;7039;52.168;9.866;2022-11-15T05:55:00;100063.78;;;10.40;92.77
13934;BME280;7039;52.168;9.866;2022-11-15T05:57:27;100063.00;;;10.54;92.58
13934;BME280;7039;52.168;9.866;2022-11-15T05:59:54;100067.53;;;10.51;92.40
13934;BME280;7039;52.168;9.866;2022-11-15T06:02:20;100069.81;;;10.57;92.44
13934;BME280;7039;52.168;9.866;2022-11-15T06:04:48;100052.19;;;10.60;92.46
13934;BME280;7039;52.168;9.866;2022-11-15T06:07:15;100061.03;;;10.58;92.04
13934;BME280;7039;52.168;9.866;2022-11-15T06:09:41;100057.88;;;10.53;92.12
13934;BME280;7039;52.168;9.866;2022-11-15T06:12:08;100059.22;;;10.44;92.52
13934;BME280;7039;52.168;9.866;2022-11-15T06:14:34;100060.66;;;10.34;93.04
13934;BME280;7039;52.168;9.866;2022-11-15T06:17:01;100067.00;;;10.28;93.25
13934;BME280;7039;52.168;9.866;2022-11-15T06:19:28;100072.41;;;10.25;93.45
13934;BME280;7039;52.168;9.866;2022-11-15T06:21:59;100077.44;;;10.12;93.60
13934;BME280;7039;52.168;9.866;2022-11-15T06:24:25;100069.34;;;9.85;94.13
13934;BME280;7039;52.168;9.866;2022-11-15T06:26:52;100077.41;;;9.80;95.03
13934;BME280;7039;52.168;9.866;2022-11-15T06:29:19;100084.19;;;9.67;95.03
13934;BME280;7039;52.168;9.866;2022-11-15T06:31:45;100075.84;;;9.60;95.14
13934;BME280;7039;52.168;9.866;2022-11-15T06:34:11;100078.22;;;9.49;95.71
13934;BME280;7039;52.168;9.866;2022-11-15T06:36:38;100081.13;;;9.43;95.70
13934;BME280;7039;52.168;9.866;2022-11-15T06:39:06;100087.41;;;9.39;96.38
13934;BME280;7039;52.168;9.866;2022-11-15T06:41:34;100089.00;;;9.24;98.11
13934;BME280;7039;52.168;9.866;2022-11-15T06:44:00;100076.69;;;9.10;98.76
13934;BME280;7039;52.168;9.866;2022-11-15T06:46:27;100086.25;;;9.10;98.74
13934;BME280;7039;52.168;9.866;2022-11-15T06:48:54;100083.72;;;9.08;98.29
13934;BME280;7039;52.168;9.866;2022-11-15T06:51:20;100081.22;;;9.07;98.49
13934;BME280;7039;52.168;9.866;2022-11-15T06:53:47;100080.47;;;9.05;98.46
13934;BME280;7039;52.168;9.866;2022-11-15T06:56:15;100083.13;;;9.03;98.33
13934;BME280;7039;52.168;9.866;2022-11-15T06:58:41;100089.63;;;8.94;98.44
13934;BME280;7039;52.168;9.866;2022-11-15T07:01:09;100093.63;;;9.02;98.40
13934;BME280;7039;52.168;9.866;2022-11-15T07:03:38;100107.53;;;9.01;98.70
13934;BME280;7039;52.168;9.866;2022-11-15T07:06:05;100104.94;;;9.01;98.65
13934;BME280;7039;52.168;9.866;2022-11-15T07:08:32;100102.28;;;9.02;98.38
13934;BME280;7039;52.168;9.866;2022-11-15T07:10:59;100105.63;;;9.04;98.24
13934;BME280;7039;52.168;9.866;2022-11-15T07:13:29;100107.91;;;9.10;98.21
13934;BME280;7039;52.168;9.866;2022-11-15T07:15:58;100107.91;;;9.10;98.47
13934;BME280;7039;52.168;9.866;2022-11-15T07:18:27;100106.47;;;9.22;98.17
13934;BME280;7039;52.168;9.866;2022-11-15T07:20:53;100103.78;;;9.24;97.31
13934;BME280;7039;52.168;9.866;2022-11-15T07:23:20;100097.69;;;9.25;97.06
13934;BME280;7039;52.168;9.866;2022-11-15T07:25:46;100104.38;;;9.29;97.20
13934;BME280;7039;52.168;9.866;2022-11-15T07:28:13;100104.72;;;9.23;97.19
13934;BME280;7039;52.168;9.866;2022-11-15T07:30:41;100101.94;;;9.26;96.76
13934;BME280;7039;52.168;9.866;2022-11-15T07:33:07;100096.56;;;9.29;96.68
13934;BME280;7039;52.168;9.866;2022-11-15T07:35:33;100104.53;;;9.43;96.26
13934;BME280;7039;52.168;9.866;2022-11-15T07:38:01;100113.13;;;9.45;96.01
13934;BME280;7039;52.168;9.866;2022-11-15T07:40:30;100104.44;;;9.45;96.19
13934;BME280;7039;52.168;9.866;2022-11-15T07:42:59;100104.91;;;9.53;96.17
13934;BME280;7039;52.168;9.866;2022-11-15T07:45:25;100111.81;;;9.54;95.59
13934;BME280;7039;52.168;9.866;2022-11-15T07:47:54;100101.91;;;9.60;95.98
13934;BME280;7039;52.168;9.866;2022-11-15T07:50:21;100107.34;;;9.56;95.76
13934;BME280;7039;52.168;9.866;2022-11-15T07:52:53;100110.81;;;9.56;95.84
13934;BME280;7039;52.168;9.866;2022-11-15T07:55:19;100112.94;;;9.48;95.93
13934;BME280;7039;52.168;9.866;2022-11-15T07:57:46;100107.69;;;9.50;95.81
13934;BME280;7039;52.168;9.866;2022-11-15T08:00:14;100104.06;;;9.52;95.59
13934;BME280;7039;52.168;9.866;2022-11-15T08:02:41;100101.09;;;9.43;95.90
13934;BME280;7039;52.168;9.866;2022-11-15T08:05:09;100104.63;;;9.41;96.03
13934;BME280;7039;52.168;9.866;2022-11-15T08:07:35;100095.97;;;9.41;96.55
13934;BME280;7039;52.168;9.866;2022-11-15T08:10:03;100094.50;;;9.53;95.63
13934;BME280;7039;52.168;9.866;2022-11-15T08:12:31;100094.00;;;9.62;95.07
13934;BME280;7039;52.168;9.866;2022-11-15T08:14:57;100099.81;;;9.67;95.04
13934;BME280;7039;52.168;9.866;2022-11-15T08:17:24;100102.38;;;9.85;94.42
13934;BME280;7039;52.168;9.866;2022-11-15T08:19:51;100093.81;;;9.82;93.85
13934;BME280;7039;52.168;9.866;2022-11-15T08:22:19;100098.44;;;9.93;94.65
13934;BME280;7039;52.168;9.866;2022-11-15T08:24:45;100103.41;;;9.98;94.69
13934;BME280;7039;52.168;9.866;2022-11-15T08:27:12;100101.56;;;10.00;94.20
13934;BME280;7039;52.168;9.866;2022-11-15T08:29:42;100109.91;;;10.07;93.46
13934;BME280;7039;52.168;9.866;2022-11-15T08:32:09;100113.34;;;10.23;92.24
13934;BME280;7039;52.168;9.866;2022-11-15T08:34:36;100109.66;;;10.27;91.83
13934;BME280;7039;52.168;9.866;2022-11-15T08:37:03;100114.31;;;10.38;92.06
13934;BME280;7039;52.168;9.866;2022-11-15T08:39:31;100111.88;;;10.51;91.21
13934;BME280;7039;52.168;9.866;2022-11-15T08:41:58;100098.31;;;10.44;90.89
13934;BME280;7039;52.168;9.866;2022-11-15T08:44:25;100097.28;;;10.62;91.22
13934;BME280;7039;52.168;9.866;2022-11-15T08:46:51;100098.22;;;10.77;90.85
13934;BME280;7039;52.168;9.866;2022-11-15T08:49:17;100099.19;;;10.91;90.11
13934;BME280;7039;52.168;9.866;2022-11-15T08:51:44;100103.03;;;10.99;90.04
13934;BME280;7039;52.168;9.866;2022-11-15T08:54:10;100100.25;;;11.02;89.69
13934;BME280;7039;52.168;9.866;2022-11-15T08:56:38;100091.88;;;11.12;88.93
13934;BME280;7039;52.168;9.866;2022-11-15T08:59:05;100085.38;;;11.19;88.70
13934;BME280;7039;52.168;9.866;2022-11-15T09:01:31;100076.69;;;11.18;87.97
13934;BME280;7039;52.168;9.866;2022-11-15T09:03:58;100073.47;;;11.29;87.68
13934;BME280;7039;52.168;9.866;2022-11-15T09:06:24;100084.09;;;11.40;87.67
13934;BME280;7039;52.168;9.866;2022-11-15T09:08:50;100089.53;;;11.52;87.79
13934;BME280;7039;52.168;9.866;2022-11-15T09:11:17;100086.53;;;11.58;86.04
13934;BME280;7039;52.168;9.866;2022-11-15T09:13:46;100097.16;;;11.69;85.75
13934;BME280;7039;52.168;9.866;2022-11-15T09:16:13;100092.81;;;11.69;85.31
13934;BME280;7039;52.168;9.866;2022-11-15T09:18:40;100100.94;;;11.94;85.45
13934;BME280;7039;52.168;9.866;2022-11-15T09:21:08;100097.66;;;12.04;85.25
13934;BME280;7039;52.168;9.866;2022-11-15T09:23:34;100094.22;;;12.04;84.57
13934;BME280;7039;52.168;9.866;2022-11-15T09:26:02;100091.19;;;12.10;83.80
13934;BME280;7039;52.168;9.866;2022-11-15T09:28:30;100094.84;;;12.22;83.34
13934;BME280;7039;52.168;9.866;2022-11-15T09:30:59;100095.84;;;12.33;82.66
13934;BME280;7039;52.168;9.866;2022-11-15T09:33:26;100087.50;;;12.41;82.55
13934;BME280;7039;52.168;9.866;2022-11-15T09:35:53;100082.94;;;12.58;82.44
13934;BME280;7039;52.168;9.866;2022-11-15T09:38:20;100089.06;;;12.71;82.00
13934;BME280;7039;52.168;9.866;2022-11-15T09:40:50;100085.53;;;12.72;80.60
13934;BME280;7039;52.168;9.866;2022-11-15T09:43:28;100089.13;;;12.84;81.49
13934;BME280;7039;52.168;9.866;2022-11-15T09:46:06;100085.50;;;12.99;81.26
13934;BME280;7039;52.168;9.866;2022-11-15T09:48:50;100085.69;;;12.96;79.99
13934;BME280;7039;52.168;9.866;2022-11-15T09:51:24;100088.31;;;13.09;80.24
13934;BME280;7039;52.168;9.866;2022-11-15T09:53:57;100083.72;;;13.12;79.42
13934;BME280;7039;52.168;9.866;2022-11-15T09:56:27;100084.25;;;13.18;79.56
13934;BME280;7039;52.168;9.866;2022-11-15T09:59:04;100084.47;;;13.27;79.75
13934;BME280;7039;52.168;9.866;2022-11-15T10:01:45;100087.75;;;13.44;79.06
13934;BME280;7039;52.168;9.866;2022-11-15T10:04:14;100089.22;;;13.48;78.81
13934;BME280;7039;52.168;9.866;2022-11-15T10:06:46;100085.25;;;13.42;78.24
13934;BME280;7039;52.168;9.866;2022-11-15T10:09:19;100080.63;;;13.46;78.33
13934;BME280;7039;52.168;9.866;2022-11-15T10:11:48;100080.22;;;13.39;78.19
13934;BME280;7039;52.168;9.866;2022-11-15T10:14:18;100066.16;;;13.53;78.23
13934;BME280;7039;52.168;9.866;2022-11-15T10:17:02;100066.69;;;13.45;77.98
13934;BME280;7039;52.168;9.866;2022-11-15T10:19:37;100066.16;;;13.53;77.65
13934;BME280;7039;52.168;9.866;2022-11-15T10:22:18;100077.56;;;13.65;77.42
13934;BME280;7039;52.168;9.866;2022-11-15T10:24:48;100072.22;;;13.66;76.59
13934;BME280;7039;52.168;9.866;2022-11-15T10:27:16;100069.50;;;13.68;76.39
13934;BME280;7039;52.168;9.866;2022-11-15T10:29:44;100068.13;;;13.75;76.59
13934;BME280;7039;52.168;9.866;2022-11-15T10:32:13;100053.75;;;13.81;76.26
13934;BME280;7039;52.168;9.866;2022-11-15T10:34:40;100060.69;;;13.82;76.00
13934;BME280;7039;52.168;9.866;2022-11-15T10:37:07;100054.06;;;13.89;76.09
13934;BME280;7039;52.168;9.866;2022-11-15T10:39:33;100057.72;;;13.99;76.45
13934;BME280;7039;52.168;9.866;2022-11-15T10:42:15;100062.44;;;14.31;75.88
13934;BME280;7039;52.168;9.866;2022-11-15T10:44:43;100061.22;;;14.48;74.55
13934;BME280;7039;52.168;9.866;2022-11-15T10:47:26;100054.50;;;14.56;74.23
13934;BME280;7039;52.168;9.866;2022-11-15T10:49:58;100051.00;;;14.80;73.93
13934;BME280;7039;52.168;9.866;2022-11-15T10:52:26;100043.63;;;14.96;73.03
13934;BME280;7039;52.168;9.866;2022-11-15T10:54:56;100039.00;;;15.00;72.04
13934;BME280;7039;52.168;9.866;2022-11-15T10:57:27;100043.28;;;15.01;72.05
13934;BME280;7039;52.168;9.866;2022-11-15T10:59:56;100036.06;;;14.80;73.07
13934;BME280;7039;52.168;9.866;2022-11-15T11:02:30;100025.69;;;14.79;73.01
13934;BME280;7039;52.168;9.866;2022-11-15T11:04:57;100026.72;;;14.65;73.69
13934;BME280;7039;52.168;9.866;2022-11-15T11:07:26;100025.38;;;14.59;73.60
13934;BME280;7039;52.168;9.866;2022-11-15T11:09:57;100020.63;;;14.65;73.90
13934;BME280;7039;52.168;9.866;2022-11-15T11:12:27;100023.41;;;14.74;74.14
13934;BME280;7039;52.168;9.866;2022-11-15T11:14:55;100014.56;;;14.75;73.86
13934;BME280;7039;52.168;9.866;2022-11-15T11:17:34;100013.78;;;14.86;73.33
13934;BME280;7039;52.168;9.866;2022-11-15T11:20:10;100004.63;;;15.03;72.57
13934;BME280;7039;52.168;9.866;2022-11-15T11:22:45;100005.00;;;15.21;72.44
13934;BME280;7039;52.168;9.866;2022-11-15T11:25:21;100009.53;;;15.41;72.32
13934;BME280;7039;52.168;9.866;2022-11-15T11:27:59;100003.34;;;15.31;72.91
13934;BME280;7039;52.168;9.866;2022-11-15T11:30:40;99996.03;;;15.12;73.67
13934;BME280;7039;52.168;9.866;2022-11-15T11:33:16;99995.44;;;15.09;73.39
13934;BME280;7039;52.168;9.866;2022-11-15T11:35:53;100005.19;;;14.95;73.77
13934;BME280;7039;52.168;9.866;2022-11-15T11:38:33;100000.56;;;14.99;73.87
13934;BME280;7039;52.168;9.866;2022-11-15T11:41:09;99998.84;;;14.87;74.10
13934;BME280;7039;52.168;9.866;2022-11-15T11:43:44;100003.53;;;14.83;74.55
13934;BME280;7039;52.168;9.866;2022-11-15T11:46:32;99992.75;;;14.75;74.55
13934;BME280;7039;52.168;9.866;2022-11-15T11:49:08;99996.19;;;14.75;74.50
13934;BME280;7039;52.168;9.866;2022-11-15T11:51:39;99986.50;;;14.65;75.01
13934;BME280;7039;52.168;9.866;2022-11-15T11:54:12;99984.16;;;14.49;75.37
13934;BME280;7039;52.168;9.866;2022-11-15T11:56:43;99975.44;;;14.48;75.03
13934;BME280;7039;52.168;9.866;2022-11-15T11:59:16;99984.38;;;14.46;75.34
13934;BME280;7039;52.168;9.866;2022-11-15T12:01:45;99987.59;;;14.38;75.72
13934;BME280;7039;52.168;9.866;2022-11-15T12:04:17;99981.00;;;14.56;75.38
13934;BME280;7039;52.168;9.866;2022-11-15T12:06:49;99973.78;;;14.47;75.76
13934;BME280;7039;52.168;9.866;2022-11-15T12:09:20;99968.91;;;14.54;74.59
13934;BME280;7039;52.168;9.866;2022-11-15T12:11:52;99968.84;;;14.67;74.18
13934;BME280;7039;52.168;9.866;2022-11-15T12:14:31;99965.50;;;14.65;74.56
13934;BME280;7039;52.168;9.866;2022-11-15T12:16:59;99957.69;;;14.52;74.07
13934;BME280;7039;52.168;9.866;2022-11-15T12:19:28;99959.34;;;14.53;74.17
13934;BME280;7039;52.168;9.866;2022-11-15T12:22:00;99958.94;;;14.35;74.96
13934;BME280;7039;52.168;9.866;2022-11-15T12:24:31;99955.47;;;14.34;75.02
13934;BME280;7039;52.168;9.866;2022-11-15T12:27:01;99952.91;;;14.46;74.99
13934;BME280;7039;52.168;9.866;2022-11-15T12:29:33;99948.69;;;14.56;75.07
13934;BME280;7039;52.168;9.866;2022-11-15T12:32:02;99943.03;;;14.49;75.11
13934;BME280;7039;52.168;9.866;2022-11-15T12:34:42;99940.41;;;14.49;74.59
13934;BME280;7039;52.168;9.866;2022-11-15T12:37:33;99941.56;;;14.45;74.82
13934;BME280;7039;52.168;9.866;2022-11-15T12:43:01;99935.25;;;14.48;74.91
13934;BME280;7039;52.168;9.866;2022-11-15T12:45:30;99932.53;;;14.49;74.76
13934;BME280;7039;52.168;9.866;2022-11-15T12:48:45;99929.19;;;14.47;74.74
13934;BME280;7039;52.168;9.866;2022-11-15T12:51:13;99926.31;;;14.50;74.90
13934;BME280;7039;52.168;9.866;2022-11-15T12:53:40;99919.16;;;14.52;74.77
13934;BME280;7039;52.168;9.866;2022-11-15T12:56:21;99915.88;;;14.61;74.69
13934;BME280;7039;52.168;9.866;2022-11-15T12:58:54;99908.38;;;14.68;74.22
13934;BME280;7039;52.168;9.866;2022-11-15T13:01:57;99904.66;;;14.71;74.41
13934;BME280;7039;52.168;9.866;2022-11-15T13:04:26;99899.22;;;14.74;74.46
13934;BME280;7039;52.168;9.866;2022-11-15T13:06:56;99908.38;;;14.79;74.15
13934;BME280;7039;52.168;9.866;2022-11-15T13:09:52;99902.88;;;14.82;74.08
13934;BME280;7039;52.168;9.866;2022-11-15T13:13:00;99894.56;;;14.89;73.72
13934;BME280;7039;52.168;9.866;2022-11-15T13:15:33;99888.00;;;14.94;73.66
13934;BME280;7039;52.168;9.866;2022-11-15T13:18:29;99892.41;;;15.05;73.57
13934;BME280;7039;52.168;9.866;2022-11-15T13:20:56;99893.22;;;15.06;73.53
13934;BME280;7039;52.168;9.866;2022-11-15T13:23:24;99885.34;;;15.17;73.30
13934;BME280;7039;52.168;9.866;2022-11-15T13:26:01;99876.25;;;15.21;73.53
13934;BME280;7039;52.168;9.866;2022-11-15T13:28:33;99882.13;;;15.24;73.17
13934;BME280;7039;52.168;9.866;2022-11-15T13:31:02;99881.88;;;15.28;73.31
13934;BME280;7039;52.168;9.866;2022-11-15T13:33:31;99874.34;;;15.34;72.64
13934;BME280;7039;52.168;9.866;2022-11-15T13:35:59;99872.44;;;15.36;72.79